首页
METAR-TAF:

METAR-TAF

机场 :

西爾維奧·佩蒂羅西國際機場

亞松森, 巴拉圭

纬度: 25-16S, 经度: 057-38W, 海拔: 101米

当前天气观测

该预报发布于35分钟前的18:00 UTC
风速8节,风向东北,在北转东北之间变化
温度 28°C
湿度 45%
气压 1018 hPa
能見度: 5000

METAR: SGAS 171800Z 05008KT 020V080 5000 FU NSC 28/15 Q1018

时间: 14:35 (18:35 UTC)

预报

该预报发布于4分钟前的18:31 UTC
预报有效从17日的 18点(UTC)到 18日的 18点(UTC)
风速10节,风向东北
能見度: 5000
成为
从 17日的 23点(UTC)到 18日的 04点(UTC)
风速4节,风向多变
能見度: 6000
成为
从 18日的 06点(UTC)到 18日的 08点(UTC)
风速10节,风向东北
能见度10公里或以上
1500米以下无云,无积雨云
成为
从 18日的 15点(UTC)到 18日的 18点(UTC)
风速15节,风向北转东北
能见度10公里或以上
散云层高于2700英尺

TAF: SGAS 171831Z 1718/1818 05010KT 5000 FU NSC TX29/1719Z TN17/1809Z BECMG 1723/1804 VRB04KT 6000 NSC BECMG 1806/1808 04010KT CAVOK BECMG 1815/1818 02015KT 9999 SCT027

超过4000个机场的气象观测和天气预报(METAR&TAF报告)。

可查询的气象台以黄色和红色小点在地图上表示。

将鼠标移到小点上方,可查看气象台名称。

然后点击查看天气观测和预报。

如需切换地图:点击带黑十字的绿色按钮放大地图;点击带横线的绿色按钮缩小地图;或者点击绿色箭头查看邻近地区的地图。


METAR-TAF: